createdAt,value
2018-05-09T00:01:36.111Z,49.70
2018-05-09T00:06:26.996Z,49.60
2018-05-09T00:11:17.886Z,49.70
2018-05-09T00:16:08.842Z,50.00
2018-05-09T00:20:59.743Z,50.00
2018-05-09T00:25:50.692Z,49.90
2018-05-09T00:30:41.598Z,50.00
2018-05-09T00:35:32.488Z,50.10
2018-05-09T00:40:23.461Z,50.10
2018-05-09T00:45:15.098Z,50.30
2018-05-09T00:50:05.971Z,50.20
2018-05-09T00:54:56.842Z,50.20
2018-05-09T00:59:48.491Z,50.30
2018-05-09T01:04:40.108Z,50.20
2018-05-09T01:09:31.049Z,50.20
2018-05-09T01:14:22.011Z,50.60
2018-05-09T01:19:12.879Z,50.20
2018-05-09T01:24:04.496Z,50.30
2018-05-09T01:28:55.389Z,50.30
2018-05-09T01:33:46.273Z,50.30
2018-05-09T01:38:37.177Z,50.40
2018-05-09T01:43:28.804Z,50.50
2018-05-09T01:48:20.440Z,50.50
2018-05-09T01:53:12.064Z,50.60
2018-05-09T01:58:03.704Z,51.10
2018-05-09T02:02:55.345Z,50.70
2018-05-09T02:07:46.982Z,51.30
2018-05-09T02:12:38.624Z,50.70
2018-05-09T02:17:30.278Z,50.80
2018-05-09T02:22:21.875Z,51.00
2018-05-09T02:27:13.502Z,51.50
2018-05-09T02:32:04.460Z,50.80
2018-05-09T02:36:56.188Z,51.00
2018-05-09T02:41:47.817Z,51.10
2018-05-09T02:46:39.449Z,51.20
2018-05-09T02:51:31.137Z,51.20
2018-05-09T02:56:22.008Z,51.10
2018-05-09T03:01:13.623Z,51.20
2018-05-09T03:06:05.996Z,51.10
2018-05-09T03:10:57.619Z,51.20
2018-05-09T03:15:49.243Z,51.20
2018-05-09T03:20:40.152Z,51.00
2018-05-09T03:25:31.049Z,51.10
2018-05-09T03:30:28.993Z,51.10
2018-05-09T03:35:19.927Z,51.10
2018-05-09T03:40:10.820Z,51.10
2018-05-09T03:45:02.449Z,51.40
2018-05-09T03:49:54.071Z,51.30
2018-05-09T03:54:45.051Z,51.30
2018-05-09T03:59:35.951Z,51.20
2018-05-09T04:04:39.425Z,51.20
2018-05-09T04:09:34.491Z,51.20
2018-05-09T04:14:25.327Z,51.20
2018-05-09T04:19:16.217Z,51.20
2018-05-09T04:24:07.099Z,51.20
2018-05-09T04:28:57.979Z,51.40
2018-05-09T04:33:48.894Z,51.60
2018-05-09T04:38:39.835Z,51.50
2018-05-09T04:43:30.708Z,51.50
2018-05-09T04:48:21.588Z,51.70
2018-05-09T04:53:12.483Z,51.80
2018-05-09T04:58:03.364Z,52.00
2018-05-09T05:02:54.250Z,52.10
2018-05-09T05:07:45.888Z,52.50
2018-05-09T05:12:37.511Z,52.50
2018-05-09T05:17:28.393Z,52.50
2018-05-09T05:22:19.295Z,52.30
2018-05-09T05:27:10.200Z,52.70
2018-05-09T05:32:01.161Z,52.80
2018-05-09T05:36:52.217Z,53.00
2018-05-09T05:41:43.839Z,54.00
2018-05-09T05:46:35.460Z,54.20
2018-05-09T05:51:26.468Z,54.20
2018-05-09T05:56:17.381Z,54.60
2018-05-09T06:01:08.271Z,54.70
2018-05-09T06:05:59.166Z,55.20
2018-05-09T06:10:50.805Z,55.30
2018-05-09T06:15:42.441Z,55.40
2018-05-09T06:20:33.327Z,55.30
2018-05-09T06:25:24.222Z,55.30
2018-05-09T06:30:15.112Z,55.20
2018-05-09T06:35:07.977Z,55.10
2018-05-09T06:39:59.649Z,55.20
2018-05-09T06:44:50.536Z,55.20
2018-05-09T06:49:42.351Z,55.10
2018-05-09T06:54:33.337Z,55.10
2018-05-09T06:59:24.236Z,55.30
2018-05-09T07:04:15.896Z,55.80
2018-05-09T07:09:06.875Z,55.20
2018-05-09T07:13:57.776Z,55.10
2018-05-09T07:18:48.718Z,55.20
2018-05-09T07:23:39.734Z,55.20
2018-05-09T07:28:30.638Z,55.20
2018-05-09T07:33:21.543Z,55.30
2018-05-09T07:38:13.209Z,55.30
2018-05-09T07:43:04.097Z,55.20
2018-05-09T07:47:55.940Z,55.30
2018-05-09T07:52:46.632Z,55.30
2018-05-09T07:57:37.515Z,55.40
2018-05-09T08:02:28.408Z,55.40
2018-05-09T08:07:19.295Z,55.30
2018-05-09T08:12:10.919Z,55.30
2018-05-09T08:17:01.849Z,55.20
2018-05-09T08:21:52.715Z,55.10
2018-05-09T08:26:43.638Z,55.10
2018-05-09T08:31:34.529Z,55.00
2018-05-09T08:36:25.420Z,54.80
2018-05-09T08:41:17.040Z,54.60
2018-05-09T08:46:08.655Z,54.40
2018-05-09T08:50:59.539Z,54.30
2018-05-09T08:55:50.427Z,54.40
2018-05-09T09:00:42.060Z,54.10
2018-05-09T09:05:33.706Z,54.00
2018-05-09T09:10:24.698Z,54.00
2018-05-09T09:15:15.607Z,53.90
2018-05-09T09:20:06.584Z,53.90
2018-05-09T09:24:57.482Z,53.70
2018-05-09T09:29:48.393Z,53.70
2018-05-09T09:34:40.028Z,53.50
2018-05-09T09:39:31.669Z,54.00
2018-05-09T09:44:23.300Z,53.20
2018-05-09T09:49:14.931Z,53.00
2018-05-09T09:54:05.833Z,52.90
2018-05-09T09:58:56.726Z,52.60
2018-05-09T10:03:47.599Z,52.40
2018-05-09T10:08:39.231Z,52.10
2018-05-09T10:13:30.881Z,51.80
2018-05-09T10:18:21.760Z,51.80
2018-05-09T10:23:12.652Z,51.70
2018-05-09T10:28:03.547Z,51.70
2018-05-09T10:32:54.430Z,51.50
2018-05-09T10:37:46.074Z,50.40
2018-05-09T10:42:37.699Z,50.30
2018-05-09T10:47:29.448Z,49.40
2018-05-09T10:52:20.287Z,49.50
2018-05-09T10:57:11.181Z,49.80
2018-05-09T11:02:02.821Z,49.80
2018-05-09T11:06:54.459Z,49.60
2018-05-09T11:11:46.101Z,49.50
2018-05-09T11:16:37.017Z,49.50
2018-05-09T11:21:27.891Z,49.20
2018-05-09T11:26:18.793Z,48.80
2018-05-09T11:31:09.693Z,48.40
2018-05-09T11:36:00.600Z,47.80
2018-05-09T11:40:51.496Z,47.60
2018-05-09T11:45:43.139Z,46.80
2018-05-09T11:50:34.032Z,46.80
2018-05-09T11:55:24.945Z,45.70
2018-05-09T12:00:15.835Z,45.30
2018-05-09T12:05:06.754Z,44.70
2018-05-09T12:09:57.651Z,44.20
2018-05-09T12:14:48.549Z,44.70
2018-05-09T12:19:39.439Z,43.90
2018-05-09T12:24:30.387Z,44.20
2018-05-09T12:29:21.959Z,43.80
2018-05-09T12:34:12.892Z,43.80
2018-05-09T12:39:03.775Z,43.70
2018-05-09T12:43:54.659Z,44.10
2018-05-09T12:48:46.376Z,43.30
2018-05-09T12:53:37.187Z,43.30
2018-05-09T12:58:28.067Z,43.50
2018-05-09T13:03:18.963Z,43.60
2018-05-09T13:08:09.847Z,43.60
2018-05-09T13:13:00.731Z,43.60
2018-05-09T13:17:51.611Z,43.50
2018-05-09T13:22:43.237Z,42.60
2018-05-09T13:27:34.868Z,42.90
2018-05-09T13:32:26.496Z,42.40
2018-05-09T13:37:19.883Z,42.40
2018-05-09T13:42:10.811Z,42.90
2018-05-09T13:47:02.441Z,41.10
2018-05-09T13:51:53.328Z,40.50
2018-05-09T13:56:44.231Z,41.10
2018-05-09T14:01:35.152Z,41.80
2018-05-09T14:06:26.051Z,40.00
2018-05-09T14:11:16.932Z,39.20
2018-05-09T14:16:07.921Z,39.90
2018-05-09T14:20:58.795Z,40.70
2018-05-09T14:25:50.543Z,41.70
2018-05-09T14:30:42.219Z,41.90
2018-05-09T14:35:33.375Z,41.90
2018-05-09T14:40:24.283Z,42.50
2018-05-09T14:45:15.920Z,43.70
2018-05-09T14:50:07.611Z,43.40
2018-05-09T14:54:58.508Z,43.40
2018-05-09T14:59:49.502Z,42.90
2018-05-09T15:04:40.846Z,43.00
2018-05-09T15:09:31.735Z,43.50
2018-05-09T15:14:22.661Z,43.00
2018-05-09T15:19:13.548Z,43.80
2018-05-09T15:24:05.305Z,42.40
2018-05-09T15:28:56.187Z,42.40
2018-05-09T15:33:47.319Z,41.20
2018-05-09T15:38:38.948Z,40.60
2018-05-09T15:43:29.923Z,40.20
2018-05-09T15:48:20.926Z,40.50
2018-05-09T15:53:11.833Z,40.70
2018-05-09T15:58:02.783Z,41.40
2018-05-09T16:02:53.884Z,42.10
2018-05-09T16:07:44.848Z,42.00
2018-05-09T16:12:35.785Z,41.80
2018-05-09T16:17:26.771Z,42.20
2018-05-09T16:22:17.778Z,41.70
2018-05-09T16:27:08.655Z,41.80
2018-05-09T16:31:59.575Z,41.60
2018-05-09T16:36:50.532Z,41.90
2018-05-09T16:41:42.165Z,41.60
2018-05-09T16:46:33.079Z,41.50
2018-05-09T16:51:23.991Z,41.10
2018-05-09T16:56:14.915Z,41.50
2018-05-09T17:01:05.787Z,41.30
2018-05-09T17:05:57.412Z,41.90
2018-05-09T17:10:48.301Z,41.90
2018-05-09T17:15:39.193Z,42.20
2018-05-09T17:20:30.827Z,42.80
2018-05-09T17:25:22.449Z,43.10
2018-05-09T17:30:13.440Z,43.10
2018-05-09T17:35:04.339Z,43.40
2018-05-09T17:39:55.959Z,44.30
2018-05-09T17:44:47.583Z,44.40
2018-05-09T17:49:38.470Z,44.30
2018-05-09T17:54:29.469Z,44.60
2018-05-09T17:59:21.213Z,44.80
2018-05-09T18:04:12.891Z,44.90
2018-05-09T18:09:03.829Z,44.90
2018-05-09T18:13:54.727Z,45.10
2018-05-09T18:18:45.673Z,45.40
2018-05-09T18:23:36.740Z,45.40
2018-05-09T18:28:28.472Z,45.40
2018-05-09T18:33:19.379Z,45.40
2018-05-09T18:38:10.299Z,45.50
2018-05-09T18:43:01.968Z,45.60
2018-05-09T18:47:52.876Z,45.50
2018-05-09T18:52:44.507Z,45.80
2018-05-09T18:57:35.396Z,45.80
2018-05-09T19:02:27.019Z,46.10
2018-05-09T19:07:17.913Z,46.10
2018-05-09T19:12:08.823Z,46.30
2018-05-09T19:16:59.711Z,46.30
2018-05-09T19:21:51.344Z,46.40
2018-05-09T19:26:43.731Z,46.40
2018-05-09T19:31:35.369Z,46.60
2018-05-09T19:36:26.257Z,46.50
2018-05-09T19:41:17.990Z,46.50
2018-05-09T19:46:08.897Z,46.50
2018-05-09T19:50:59.832Z,46.60
2018-05-09T19:55:50.727Z,46.50
2018-05-09T20:00:41.623Z,46.60
2018-05-09T20:05:33.249Z,46.60
2018-05-09T20:10:24.883Z,46.60
2018-05-09T20:15:16.571Z,47.10
2018-05-09T20:20:07.575Z,46.60
2018-05-09T20:24:58.459Z,46.60
2018-05-09T20:29:49.948Z,46.60
2018-05-09T20:34:40.887Z,46.70
2018-05-09T20:39:31.783Z,46.70
2018-05-09T20:44:23.497Z,46.90
2018-05-09T20:49:14.383Z,46.90
2018-05-09T20:54:06.765Z,47.00
2018-05-09T20:58:58.447Z,47.10
2018-05-09T21:03:49.346Z,47.10
2018-05-09T21:08:40.293Z,47.50
2018-05-09T21:13:32.733Z,47.30
2018-05-09T21:18:23.676Z,47.20
2018-05-09T21:23:14.571Z,47.60
2018-05-09T21:28:05.503Z,47.60
2018-05-09T21:32:56.490Z,47.70
2018-05-09T21:37:47.395Z,48.00
2018-05-09T21:42:38.286Z,47.90
2018-05-09T21:47:29.172Z,48.00
2018-05-09T21:52:20.865Z,48.20
2018-05-09T21:57:12.484Z,48.20
2018-05-09T22:02:03.379Z,48.20
2018-05-09T22:06:54.274Z,48.40
2018-05-09T22:11:45.180Z,48.50
2018-05-09T22:16:36.067Z,48.50
2018-05-09T22:21:27.093Z,48.40
2018-05-09T22:26:18.771Z,48.40
2018-05-09T22:31:09.656Z,48.40
2018-05-09T22:36:01.282Z,48.30
2018-05-09T22:40:52.217Z,48.10
2018-05-09T22:45:45.014Z,48.10
2018-05-09T22:50:36.016Z,48.00
2018-05-09T22:55:26.956Z,48.10
2018-05-09T23:00:17.856Z,48.10
2018-05-09T23:05:08.772Z,48.10
2018-05-09T23:10:00.431Z,48.90
2018-05-09T23:14:52.087Z,48.30
2018-05-09T23:19:42.979Z,48.30
2018-05-09T23:24:34.724Z,48.60
2018-05-09T23:29:26.572Z,48.80
2018-05-09T23:34:17.527Z,48.70
2018-05-09T23:39:08.425Z,48.90
2018-05-09T23:43:59.349Z,49.10
2018-05-09T23:48:50.247Z,49.40
2018-05-09T23:53:41.209Z,49.40
2018-05-09T23:58:32.104Z,49.40
